PWSweather.com
Personal Weather Stations
Station Observations
KOHAVON11
Long Road Station, Avon, OH 44011

Long Road StationAvon, OH 44011

Lat: 41.437, Lon: -82.0477

Elevation: 686

Station Type: Davis Vantage Pro2

http://www.avon-weather.com

High Low Average
Temperature 41.5°F5.3°C 26.4°F-3.1°C 32.9°F0.5°C
Dew Point 26.5°F-3.1°C 20.3°F-6.5°C 23.5°F-4.7°C
Winds 7.0 mph 11.3 kmh Calm Calm 2.0 mph S3.2 kmh S
Wind Gusts 11.0 mph17.7 kmh -- 4.0 mph6.4 kmh
Humidity 83% 51% 69%
Pressure 30.26 in1024.7 mb 29.93 in1013.5 mb -
Precipitation 0.00 in0.0 mm - -
Hour Temp Dew Point Humidity Winds Wind Gusts Pressure Precip Precip Rate Daily Precip Total
12:02 AM 35.2°F1.8°C 24.5°F-4.2°C 65% 4.0 mph W6.4 kmh W 12.0 mph19.3 kmh 29.91 in1012.9 mb 0.00 in0.0 mm 0.00 in0.0 mm 0.00 in0.0 mm
12:07 AM 35.1°F1.7°C 24.4°F-4.2°C 65% 4.0 mph WSW6.4 kmh WSW 12.0 mph19.3 kmh 29.91 in1012.9 mb 0.00 in0.0 mm 0.00 in0.0 mm 0.00 in0.0 mm
12:12 AM 35.1°F1.7°C 24.4°F-4.2°C 65% 8.0 mph WSW12.9 kmh WSW 12.0 mph19.3 kmh 29.91 in1012.9 mb 0.00 in0.0 mm 0.00 in0.0 mm 0.00 in0.0 mm
12:17 AM 35.0°F1.7°C 24.3°F-4.3°C 65% 6.0 mph WSW9.7 kmh WSW 9.0 mph14.5 kmh 29.92 in1013.2 mb 0.00 in0.0 mm 0.00 in0.0 mm 0.00 in0.0 mm
12:22 AM 34.9°F1.6°C 24.2°F-4.3°C 65% 2.0 mph WSW3.2 kmh WSW 9.0 mph14.5 kmh 29.92 in1013.2 mb 0.00 in0.0 mm 0.00 in0.0 mm 0.00 in0.0 mm
12:27 AM 34.8°F1.6°C 24.1°F-4.4°C 65% 2.0 mph WSW3.2 kmh WSW 8.0 mph12.9 kmh 29.92 in1013.2 mb 0.00 in0.0 mm 0.00 in0.0 mm 0.00 in0.0 mm
12:32 AM 34.7°F1.5°C 24.0°F-4.4°C 65% 3.0 mph WSW4.8 kmh WSW 8.0 mph12.9 kmh 29.92 in1013.2 mb 0.00 in0.0 mm 0.00 in0.0 mm 0.00 in0.0 mm
12:37 AM 34.5°F1.4°C 24.2°F-4.3°C 66% 3.0 mph WSW4.8 kmh WSW 8.0 mph12.9 kmh 29.93 in1013.5 mb 0.00 in0.0 mm 0.00 in0.0 mm 0.00 in0.0 mm
12:42 AM 34.4°F1.3°C 24.1°F-4.4°C 66% 4.0 mph WSW6.4 kmh WSW 8.0 mph12.9 kmh 29.93 in1013.5 mb 0.00 in0.0 mm 0.00 in0.0 mm 0.00 in0.0 mm
12:47 AM 34.2°F1.2°C 23.9°F-4.5°C 66% 3.0 mph W4.8 kmh W 7.0 mph11.3 kmh 29.93 in1013.5 mb 0.00 in0.0 mm 0.00 in0.0 mm 0.00 in0.0 mm
12:52 AM 34.2°F1.2°C 23.9°F-4.5°C 66% 6.0 mph WSW9.7 kmh WSW 8.0 mph12.9 kmh 29.93 in1013.5 mb 0.00 in0.0 mm 0.00 in0.0 mm 0.00 in0.0 mm
12:57 AM 34.1°F1.2°C 23.8°F-4.6°C 66% 4.0 mph WSW6.4 kmh WSW 10.0 mph16.1 kmh 29.93 in1013.5 mb 0.00 in0.0 mm 0.00 in0.0 mm 0.00 in0.0 mm
01:02 AM 34.0°F1.1°C 24.1°F-4.4°C 67% 3.0 mph WSW4.8 kmh WSW 10.0 mph16.1 kmh 29.94 in1013.9 mb 0.00 in0.0 mm 0.00 in0.0 mm 0.00 in0.0 mm
01:07 AM 33.9°F1.1°C 24.0°F-4.4°C 67% 6.0 mph WSW9.7 kmh WSW 10.0 mph16.1 kmh 29.93 in1013.5 mb 0.00 in0.0 mm 0.00 in0.0 mm 0.00 in0.0 mm
01:12 AM 33.8°F1.0°C 23.9°F-4.5°C 67% 2.0 mph W3.2 kmh W 10.0 mph16.1 kmh 29.94 in1013.9 mb 0.00 in0.0 mm 0.00 in0.0 mm 0.00 in0.0 mm
01:17 AM 33.7°F0.9°C 23.8°F-4.6°C 67% 3.0 mph WSW4.8 kmh WSW 7.0 mph11.3 kmh 29.94 in1013.9 mb 0.00 in0.0 mm 0.00 in0.0 mm 0.00 in0.0 mm
01:22 AM 33.6°F0.9°C 23.7°F-4.6°C 67% 4.0 mph WSW6.4 kmh WSW 8.0 mph12.9 kmh 29.94 in1013.9 mb 0.00 in0.0 mm 0.00 in0.0 mm 0.00 in0.0 mm
01:27 AM 33.5°F0.8°C 23.6°F-4.7°C 67% 4.0 mph WSW6.4 kmh WSW 8.0 mph12.9 kmh 29.94 in1013.9 mb 0.00 in0.0 mm 0.00 in0.0 mm 0.00 in0.0 mm
01:32 AM 33.4°F0.8°C 23.5°F-4.7°C 67% 5.0 mph WSW8.0 kmh WSW 8.0 mph12.9 kmh 29.95 in1014.2 mb 0.00 in0.0 mm 0.00 in0.0 mm 0.00 in0.0 mm
01:37 AM 33.3°F0.7°C 23.4°F-4.8°C 67% 3.0 mph WSW4.8 kmh WSW 8.0 mph12.9 kmh 29.95 in1014.2 mb 0.00 in0.0 mm 0.00 in0.0 mm 0.00 in0.0 mm
01:42 AM 33.2°F0.7°C 23.3°F-4.8°C 67% 3.0 mph WSW4.8 kmh WSW 7.0 mph11.3 kmh 29.95 in1014.2 mb 0.00 in0.0 mm 0.00 in0.0 mm 0.00 in0.0 mm
01:47 AM 33.2°F0.7°C 23.3°F-4.8°C 67% 2.0 mph WSW3.2 kmh WSW 7.0 mph11.3 kmh 29.95 in1014.2 mb 0.00 in0.0 mm 0.00 in0.0 mm 0.00 in0.0 mm
01:52 AM 33.1°F0.6°C 23.2°F-4.9°C 67% 2.0 mph WSW3.2 kmh WSW 5.0 mph8.0 kmh 29.95 in1014.2 mb 0.00 in0.0 mm 0.00 in0.0 mm 0.00 in0.0 mm
01:57 AM 33.1°F0.6°C 23.2°F-4.9°C 67% 3.0 mph SW4.8 kmh SW 5.0 mph8.0 kmh 29.96 in1014.6 mb 0.00 in0.0 mm 0.00 in0.0 mm 0.00 in0.0 mm
02:02 AM 33.0°F0.6°C 23.1°F-4.9°C 67% 2.0 mph WSW3.2 kmh WSW 5.0 mph8.0 kmh 29.97 in1014.9 mb 0.00 in0.0 mm 0.00 in0.0 mm 0.00 in0.0 mm
02:07 AM 33.0°F0.6°C 23.1°F-4.9°C 67% 2.0 mph WSW3.2 kmh WSW 5.0 mph8.0 kmh 29.97 in1014.9 mb 0.00 in0.0 mm 0.00 in0.0 mm 0.00 in0.0 mm
02:12 AM 33.0°F0.6°C 23.1°F-4.9°C 67% 1.0 mph WSW1.6 kmh WSW 5.0 mph8.0 kmh 29.97 in1014.9 mb 0.00 in0.0 mm 0.00 in0.0 mm 0.00 in0.0 mm
02:17 AM 32.9°F0.5°C 23.0°F-5.0°C 67% 2.0 mph SW3.2 kmh SW 5.0 mph8.0 kmh 29.98 in1015.2 mb 0.00 in0.0 mm 0.00 in0.0 mm 0.00 in0.0 mm
02:22 AM 32.9°F0.5°C 23.0°F-5.0°C 67% 2.0 mph WSW3.2 kmh WSW 6.0 mph9.7 kmh 29.98 in1015.2 mb 0.00 in0.0 mm 0.00 in0.0 mm 0.00 in0.0 mm
02:27 AM 32.9°F0.5°C 23.0°F-5.0°C 67% 2.0 mph WSW3.2 kmh WSW 6.0 mph9.7 kmh 29.98 in1015.2 mb 0.00 in0.0 mm 0.00 in0.0 mm 0.00 in0.0 mm
02:32 AM 32.9°F0.5°C 23.0°F-5.0°C 67% 1.0 mph WSW1.6 kmh WSW 6.0 mph9.7 kmh 29.98 in1015.2 mb 0.00 in0.0 mm 0.00 in0.0 mm 0.00 in0.0 mm
02:37 AM 32.9°F0.5°C 23.0°F-5.0°C 67% 5.0 mph WSW8.0 kmh WSW 6.0 mph9.7 kmh 29.98 in1015.2 mb 0.00 in0.0 mm 0.00 in0.0 mm 0.00 in0.0 mm
02:42 AM 32.9°F0.5°C 23.0°F-5.0°C 67% 2.0 mph WSW3.2 kmh WSW 5.0 mph8.0 kmh 29.98 in1015.2 mb 0.00 in0.0 mm 0.00 in0.0 mm 0.00 in0.0 mm
02:47 AM 32.9°F0.5°C 23.0°F-5.0°C 67% 3.0 mph WSW4.8 kmh WSW 5.0 mph8.0 kmh 29.99 in1015.6 mb 0.00 in0.0 mm 0.00 in0.0 mm 0.00 in0.0 mm
02:52 AM 32.9°F0.5°C 23.0°F-5.0°C 67% 1.0 mph SW1.6 kmh SW 6.0 mph9.7 kmh 29.99 in1015.6 mb 0.00 in0.0 mm 0.00 in0.0 mm 0.00 in0.0 mm
02:57 AM 32.8°F0.4°C 22.9°F-5.1°C 67% 2.0 mph WSW3.2 kmh WSW 6.0 mph9.7 kmh 29.99 in1015.6 mb 0.00 in0.0 mm 0.00 in0.0 mm 0.00 in0.0 mm
03:02 AM 32.7°F0.4°C 22.8°F-5.1°C 67% 2.0 mph SW3.2 kmh SW 6.0 mph9.7 kmh 29.99 in1015.6 mb 0.00 in0.0 mm 0.00 in0.0 mm 0.00 in0.0 mm
03:07 AM 32.6°F0.3°C 22.7°F-5.2°C 67% 2.0 mph WSW3.2 kmh WSW 6.0 mph9.7 kmh 29.99 in1015.6 mb 0.00 in0.0 mm 0.00 in0.0 mm 0.00 in0.0 mm
03:12 AM 32.5°F0.3°C 22.6°F-5.2°C 67% 1.0 mph SW1.6 kmh SW 4.0 mph6.4 kmh 29.99 in1015.6 mb 0.00 in0.0 mm 0.00 in0.0 mm 0.00 in0.0 mm
03:17 AM 32.4°F0.2°C 22.5°F-5.3°C 67% 2.0 mph SW3.2 kmh SW 4.0 mph6.4 kmh 30.00 in1015.9 mb 0.00 in0.0 mm 0.00 in0.0 mm 0.00 in0.0 mm
03:22 AM 32.4°F0.2°C 22.9°F-5.1°C 68% 2.0 mph WSW3.2 kmh WSW 5.0 mph8.0 kmh 30.00 in1015.9 mb 0.00 in0.0 mm 0.00 in0.0 mm 0.00 in0.0 mm
03:27 AM 32.3°F0.2°C 22.8°F-5.1°C 68% 1.0 mph WSW1.6 kmh WSW 5.0 mph8.0 kmh 30.00 in1015.9 mb 0.00 in0.0 mm 0.00 in0.0 mm 0.00 in0.0 mm
03:32 AM 32.2°F0.1°C 22.7°F-5.2°C 68% 1.0 mph WSW1.6 kmh WSW 5.0 mph8.0 kmh 30.00 in1015.9 mb 0.00 in0.0 mm 0.00 in0.0 mm 0.00 in0.0 mm
03:37 AM 32.0°F0.0°C 22.5°F-5.3°C 68% 1.0 mph WSW1.6 kmh WSW 5.0 mph8.0 kmh 30.01 in1016.3 mb 0.00 in0.0 mm 0.00 in0.0 mm 0.00 in0.0 mm
03:42 AM 31.9°F-0.1°C 22.4°F-5.3°C 68% 1.0 mph SW1.6 kmh SW 4.0 mph6.4 kmh 30.01 in1016.3 mb 0.00 in0.0 mm 0.00 in0.0 mm 0.00 in0.0 mm
03:47 AM 31.8°F-0.1°C 22.3°F-5.4°C 68% 2.0 mph SW3.2 kmh SW 4.0 mph6.4 kmh 30.02 in1016.6 mb 0.00 in0.0 mm 0.00 in0.0 mm 0.00 in0.0 mm
03:52 AM 31.7°F-0.2°C 22.2°F-5.4°C 68% 1.0 mph WSW1.6 kmh WSW 3.0 mph4.8 kmh 30.02 in1016.6 mb 0.00 in0.0 mm 0.00 in0.0 mm 0.00 in0.0 mm
03:57 AM 31.5°F-0.3°C 22.0°F-5.6°C 68% 1.0 mph SW1.6 kmh SW 3.0 mph4.8 kmh 30.02 in1016.6 mb 0.00 in0.0 mm 0.00 in0.0 mm 0.00 in0.0 mm
04:02 AM 31.4°F-0.3°C 21.9°F-5.6°C 68% 1.0 mph SW1.6 kmh SW 3.0 mph4.8 kmh 30.02 in1016.6 mb 0.00 in0.0 mm 0.00 in0.0 mm 0.00 in0.0 mm
04:07 AM 31.3°F-0.4°C 21.9°F-5.6°C 68% 1.0 mph SW1.6 kmh SW 4.0 mph6.4 kmh 30.02 in1016.6 mb 0.00 in0.0 mm 0.00 in0.0 mm 0.00 in0.0 mm
04:12 AM 31.1°F-0.5°C 22.0°F-5.6°C 69% Calm Calm 4.0 mph6.4 kmh 30.03 in1016.9 mb 0.00 in0.0 mm 0.00 in0.0 mm 0.00 in0.0 mm
04:17 AM 31.0°F-0.6°C 21.9°F-5.6°C 69% Calm Calm 3.0 mph4.8 kmh 30.03 in1016.9 mb 0.00 in0.0 mm 0.00 in0.0 mm 0.00 in0.0 mm
04:22 AM 30.9°F-0.6°C 21.8°F-5.7°C 69% Calm Calm -- 30.03 in1016.9 mb 0.00 in0.0 mm 0.00 in0.0 mm 0.00 in0.0 mm
04:27 AM 30.7°F-0.7°C 21.6°F-5.8°C 69% Calm Calm -- 30.03 in1016.9 mb 0.00 in0.0 mm 0.00 in0.0 mm 0.00 in0.0 mm
04:32 AM 30.5°F-0.8°C 21.4°F-5.9°C 69% Calm Calm 1.0 mph1.6 kmh 30.04 in1017.3 mb 0.00 in0.0 mm 0.00 in0.0 mm 0.00 in0.0 mm
04:37 AM 30.3°F-0.9°C 21.3°F-5.9°C 69% Calm Calm -- 30.04 in1017.3 mb 0.00 in0.0 mm 0.00 in0.0 mm 0.00 in0.0 mm
04:42 AM 30.0°F-1.1°C 21.0°F-6.1°C 69% Calm Calm -- 30.04 in1017.3 mb 0.00 in0.0 mm 0.00 in0.0 mm 0.00 in0.0 mm
04:47 AM 29.8°F-1.2°C 20.8°F-6.2°C 69% Calm Calm -- 30.04 in1017.3 mb 0.00 in0.0 mm 0.00 in0.0 mm 0.00 in0.0 mm
04:52 AM 29.7°F-1.3°C 20.7°F-6.3°C 69% Calm Calm -- 30.04 in1017.3 mb 0.00 in0.0 mm 0.00 in0.0 mm 0.00 in0.0 mm
04:57 AM 29.5°F-1.4°C 20.5°F-6.4°C 69% 1.0 mph WSW1.6 kmh WSW 2.0 mph3.2 kmh 30.05 in1017.6 mb 0.00 in0.0 mm 0.00 in0.0 mm 0.00 in0.0 mm
05:02 AM 29.3°F-1.5°C 20.6°F-6.3°C 70% Calm Calm -- 30.05 in1017.6 mb 0.00 in0.0 mm 0.00 in0.0 mm 0.00 in0.0 mm
05:07 AM 29.2°F-1.6°C 20.5°F-6.4°C 70% Calm Calm 1.0 mph1.6 kmh 30.05 in1017.6 mb 0.00 in0.0 mm 0.00 in0.0 mm 0.00 in0.0 mm
05:12 AM 29.1°F-1.6°C 20.5°F-6.4°C 70% 1.0 mph WSW1.6 kmh WSW 2.0 mph3.2 kmh 30.05 in1017.6 mb 0.00 in0.0 mm 0.00 in0.0 mm 0.00 in0.0 mm
05:17 AM 29.1°F-1.6°C 20.8°F-6.2°C 71% 1.0 mph SW1.6 kmh SW 2.0 mph3.2 kmh 30.05 in1017.6 mb 0.00 in0.0 mm 0.00 in0.0 mm 0.00 in0.0 mm
05:22 AM 29.1°F-1.6°C 21.1°F-6.1°C 72% Calm Calm 3.0 mph4.8 kmh 30.05 in1017.6 mb 0.00 in0.0 mm 0.00 in0.0 mm 0.00 in0.0 mm
05:27 AM 29.1°F-1.6°C 21.5°F-5.8°C 73% 1.0 mph SW1.6 kmh SW 3.0 mph4.8 kmh 30.05 in1017.6 mb 0.00 in0.0 mm 0.00 in0.0 mm 0.00 in0.0 mm
05:32 AM 29.1°F-1.6°C 21.5°F-5.8°C 73% 2.0 mph SW3.2 kmh SW 3.0 mph4.8 kmh 30.05 in1017.6 mb 0.00 in0.0 mm 0.00 in0.0 mm 0.00 in0.0 mm
05:37 AM 29.1°F-1.6°C 21.5°F-5.8°C 73% Calm Calm -- 30.06 in1017.9 mb 0.00 in0.0 mm 0.00 in0.0 mm 0.00 in0.0 mm
05:42 AM 29.1°F-1.6°C 21.8°F-5.7°C 74% 4.0 mph SSW6.4 kmh SSW 4.0 mph6.4 kmh 30.05 in1017.6 mb 0.00 in0.0 mm 0.00 in0.0 mm 0.00 in0.0 mm
05:47 AM 29.1°F-1.6°C 21.8°F-5.7°C 74% 3.0 mph SSW4.8 kmh SSW 4.0 mph6.4 kmh 30.06 in1017.9 mb 0.00 in0.0 mm 0.00 in0.0 mm 0.00 in0.0 mm
05:52 AM 29.1°F-1.6°C 21.8°F-5.7°C 74% Calm Calm 4.0 mph6.4 kmh 30.06 in1017.9 mb 0.00 in0.0 mm 0.00 in0.0 mm 0.00 in0.0 mm
05:57 AM 29.0°F-1.7°C 21.7°F-5.7°C 74% Calm Calm -- 30.07 in1018.3 mb 0.00 in0.0 mm 0.00 in0.0 mm 0.00 in0.0 mm
06:02 AM 28.9°F-1.7°C 21.6°F-5.8°C 74% Calm Calm -- 30.07 in1018.3 mb 0.00 in0.0 mm 0.00 in0.0 mm 0.00 in0.0 mm
06:07 AM 28.8°F-1.8°C 21.5°F-5.8°C 74% 1.0 mph SSW1.6 kmh SSW 1.0 mph1.6 kmh 30.08 in1018.6 mb 0.00 in0.0 mm 0.00 in0.0 mm 0.00 in0.0 mm
06:12 AM 28.6°F-1.9°C 21.3°F-5.9°C 74% Calm Calm 2.0 mph3.2 kmh 30.08 in1018.6 mb 0.00 in0.0 mm 0.00 in0.0 mm 0.00 in0.0 mm
06:17 AM 28.4°F-2.0°C 21.1°F-6.1°C 74% 1.0 mph SW1.6 kmh SW 2.0 mph3.2 kmh 30.08 in1018.6 mb 0.00 in0.0 mm 0.00 in0.0 mm 0.00 in0.0 mm
06:22 AM 28.3°F-2.1°C 21.0°F-6.1°C 74% Calm Calm -- 30.08 in1018.6 mb 0.00 in0.0 mm 0.00 in0.0 mm 0.00 in0.0 mm
06:27 AM 28.2°F-2.1°C 20.9°F-6.2°C 74% Calm Calm -- 30.09 in1019.0 mb 0.00 in0.0 mm 0.00 in0.0 mm 0.00 in0.0 mm
06:32 AM 28.1°F-2.2°C 20.8°F-6.2°C 74% Calm Calm 2.0 mph3.2 kmh 30.09 in1019.0 mb 0.00 in0.0 mm 0.00 in0.0 mm 0.00 in0.0 mm
06:37 AM 28.1°F-2.2°C 21.2°F-6.0°C 75% 2.0 mph WSW3.2 kmh WSW 2.0 mph3.2 kmh 30.09 in1019.0 mb 0.00 in0.0 mm 0.00 in0.0 mm 0.00 in0.0 mm
06:42 AM 28.1°F-2.2°C 21.2°F-6.0°C 75% 2.0 mph WSW3.2 kmh WSW 3.0 mph4.8 kmh 30.10 in1019.3 mb 0.00 in0.0 mm 0.00 in0.0 mm 0.00 in0.0 mm
06:47 AM 28.1°F-2.2°C 21.5°F-5.8°C 76% Calm Calm 3.0 mph4.8 kmh 30.10 in1019.3 mb 0.00 in0.0 mm 0.00 in0.0 mm 0.00 in0.0 mm
06:52 AM 28.0°F-2.2°C 21.4°F-5.9°C 76% 1.0 mph SW1.6 kmh SW 2.0 mph3.2 kmh 30.10 in1019.3 mb 0.00 in0.0 mm 0.00 in0.0 mm 0.00 in0.0 mm
06:57 AM 28.0°F-2.2°C 21.4°F-5.9°C 76% 1.0 mph SW1.6 kmh SW 2.0 mph3.2 kmh 30.11 in1019.6 mb 0.00 in0.0 mm 0.00 in0.0 mm 0.00 in0.0 mm
07:02 AM 28.0°F-2.2°C 21.7°F-5.7°C 77% 1.0 mph SW1.6 kmh SW 1.0 mph1.6 kmh 30.11 in1019.6 mb 0.00 in0.0 mm 0.00 in0.0 mm 0.00 in0.0 mm
07:07 AM 28.0°F-2.2°C 21.7°F-5.7°C 77% 2.0 mph SW3.2 kmh SW 3.0 mph4.8 kmh 30.11 in1019.6 mb 0.00 in0.0 mm 0.00 in0.0 mm 0.00 in0.0 mm
07:12 AM 28.1°F-2.2°C 21.8°F-5.7°C 77% Calm Calm 3.0 mph4.8 kmh 30.11 in1019.6 mb 0.00 in0.0 mm 0.00 in0.0 mm 0.00 in0.0 mm
07:17 AM 28.0°F-2.2°C 21.7°F-5.7°C 77% Calm Calm -- 30.12 in1020.0 mb 0.00 in0.0 mm 0.00 in0.0 mm 0.00 in0.0 mm
07:22 AM 28.0°F-2.2°C 21.7°F-5.7°C 77% Calm Calm -- 30.12 in1020.0 mb 0.00 in0.0 mm 0.00 in0.0 mm 0.00 in0.0 mm
07:27 AM 27.9°F-2.3°C 21.6°F-5.8°C 77% Calm Calm -- 30.12 in1020.0 mb 0.00 in0.0 mm 0.00 in0.0 mm 0.00 in0.0 mm
07:32 AM 27.8°F-2.3°C 21.5°F-5.8°C 77% 1.0 mph SW1.6 kmh SW 2.0 mph3.2 kmh 30.12 in1020.0 mb 0.00 in0.0 mm 0.00 in0.0 mm 0.00 in0.0 mm
07:37 AM 27.8°F-2.3°C 21.5°F-5.8°C 77% 1.0 mph SW1.6 kmh SW 4.0 mph6.4 kmh 30.12 in1020.0 mb 0.00 in0.0 mm 0.00 in0.0 mm 0.00 in0.0 mm
07:42 AM 27.8°F-2.3°C 21.5°F-5.8°C 77% 3.0 mph SW4.8 kmh SW 4.0 mph6.4 kmh 30.12 in1020.0 mb 0.00 in0.0 mm 0.00 in0.0 mm 0.00 in0.0 mm
07:47 AM 27.7°F-2.4°C 21.7°F-5.7°C 78% Calm Calm 4.0 mph6.4 kmh 30.13 in1020.3 mb 0.00 in0.0 mm 0.00 in0.0 mm 0.00 in0.0 mm
07:52 AM 27.7°F-2.4°C 21.7°F-5.7°C 78% 1.0 mph SW1.6 kmh SW 4.0 mph6.4 kmh 30.12 in1020.0 mb 0.00 in0.0 mm 0.00 in0.0 mm 0.00 in0.0 mm
07:57 AM 27.5°F-2.5°C 21.2°F-6.0°C 77% 1.0 mph SW1.6 kmh SW 2.0 mph3.2 kmh 30.13 in1020.3 mb 0.00 in0.0 mm 0.00 in0.0 mm 0.00 in0.0 mm
08:02 AM 27.4°F-2.6°C 21.1°F-6.1°C 77% 1.0 mph SW1.6 kmh SW 3.0 mph4.8 kmh 30.13 in1020.3 mb 0.00 in0.0 mm 0.00 in0.0 mm 0.00 in0.0 mm
08:07 AM 27.2°F-2.7°C 20.9°F-6.2°C 77% 2.0 mph SSW3.2 kmh SSW 3.0 mph4.8 kmh 30.13 in1020.3 mb 0.00 in0.0 mm 0.00 in0.0 mm 0.00 in0.0 mm
08:12 AM 27.1°F-2.7°C 20.8°F-6.2°C 77% 1.0 mph SSW1.6 kmh SSW 3.0 mph4.8 kmh 30.14 in1020.7 mb 0.00 in0.0 mm 0.00 in0.0 mm 0.00 in0.0 mm
08:17 AM 26.9°F-2.8°C 20.6°F-6.3°C 77% 1.0 mph SSW1.6 kmh SSW 3.0 mph4.8 kmh 30.14 in1020.7 mb 0.00 in0.0 mm 0.00 in0.0 mm 0.00 in0.0 mm
08:22 AM 26.8°F-2.9°C 20.5°F-6.4°C 77% 2.0 mph SSW3.2 kmh SSW 3.0 mph4.8 kmh 30.14 in1020.7 mb 0.00 in0.0 mm 0.00 in0.0 mm 0.00 in0.0 mm
08:27 AM 26.6°F-3.0°C 20.3°F-6.5°C 77% 3.0 mph S4.8 kmh S 3.0 mph4.8 kmh 30.14 in1020.7 mb 0.00 in0.0 mm 0.00 in0.0 mm 0.00 in0.0 mm
08:32 AM 26.6°F-3.0°C 20.7°F-6.3°C 78% 4.0 mph S6.4 kmh S 4.0 mph6.4 kmh 30.14 in1020.7 mb 0.00 in0.0 mm 0.00 in0.0 mm 0.00 in0.0 mm
08:37 AM 26.6°F-3.0°C 21.0°F-6.1°C 79% 3.0 mph S4.8 kmh S 5.0 mph8.0 kmh 30.14 in1020.7 mb 0.00 in0.0 mm 0.00 in0.0 mm 0.00 in0.0 mm
08:42 AM 26.7°F-2.9°C 21.1°F-6.1°C 79% 3.0 mph S4.8 kmh S 5.0 mph8.0 kmh 30.14 in1020.7 mb 0.00 in0.0 mm 0.00 in0.0 mm 0.00 in0.0 mm
08:47 AM 26.7°F-2.9°C 21.1°F-6.1°C 79% 4.0 mph S6.4 kmh S 5.0 mph8.0 kmh 30.14 in1020.7 mb 0.00 in0.0 mm 0.00 in0.0 mm 0.00 in0.0 mm
08:52 AM 26.7°F-2.9°C 21.1°F-6.1°C 79% 3.0 mph S4.8 kmh S 5.0 mph8.0 kmh 30.15 in1021.0 mb 0.00 in0.0 mm 0.00 in0.0 mm 0.00 in0.0 mm
08:57 AM 26.6°F-3.0°C 21.3°F-5.9°C 80% 1.0 mph S1.6 kmh S 4.0 mph6.4 kmh 30.15 in1021.0 mb 0.00 in0.0 mm 0.00 in0.0 mm 0.00 in0.0 mm
09:02 AM 26.5°F-3.1°C 21.2°F-6.0°C 80% 1.0 mph S1.6 kmh S 4.0 mph6.4 kmh 30.15 in1021.0 mb 0.00 in0.0 mm 0.00 in0.0 mm 0.00 in0.0 mm
09:07 AM 26.5°F-3.1°C 21.2°F-6.0°C 80% Calm Calm 3.0 mph4.8 kmh 30.15 in1021.0 mb 0.00 in0.0 mm 0.00 in0.0 mm 0.00 in0.0 mm
09:12 AM 26.4°F-3.1°C 21.1°F-6.1°C 80% 1.0 mph S1.6 kmh S 3.0 mph4.8 kmh 30.15 in1021.0 mb 0.00 in0.0 mm 0.00 in0.0 mm 0.00 in0.0 mm
09:17 AM 26.4°F-3.1°C 21.1°F-6.1°C 80% 3.0 mph S4.8 kmh S 4.0 mph6.4 kmh 30.16 in1021.3 mb 0.00 in0.0 mm 0.00 in0.0 mm 0.00 in0.0 mm
09:22 AM 26.4°F-3.1°C 21.1°F-6.1°C 80% Calm Calm 4.0 mph6.4 kmh 30.16 in1021.3 mb 0.00 in0.0 mm 0.00 in0.0 mm 0.00 in0.0 mm
09:27 AM 26.4°F-3.1°C 21.1°F-6.1°C 80% Calm Calm 4.0 mph6.4 kmh 30.16 in1021.3 mb 0.00 in0.0 mm 0.00 in0.0 mm 0.00 in0.0 mm
09:32 AM 26.4°F-3.1°C 21.4°F-5.9°C 81% 2.0 mph S3.2 kmh S 4.0 mph6.4 kmh 30.16 in1021.3 mb 0.00 in0.0 mm 0.00 in0.0 mm 0.00 in0.0 mm
09:37 AM 26.4°F-3.1°C 21.4°F-5.9°C 81% 2.0 mph S3.2 kmh S 3.0 mph4.8 kmh 30.16 in1021.3 mb 0.00 in0.0 mm 0.00 in0.0 mm 0.00 in0.0 mm
09:42 AM 26.4°F-3.1°C 21.4°F-5.9°C 81% 2.0 mph S3.2 kmh S 4.0 mph6.4 kmh 30.16 in1021.3 mb 0.00 in0.0 mm 0.00 in0.0 mm 0.00 in0.0 mm
09:47 AM 26.5°F-3.1°C 21.5°F-5.8°C 81% 3.0 mph S4.8 kmh S 4.0 mph6.4 kmh 30.16 in1021.3 mb 0.00 in0.0 mm 0.00 in0.0 mm 0.00 in0.0 mm
09:52 AM 26.7°F-2.9°C 21.7°F-5.7°C 81% 2.0 mph S3.2 kmh S 4.0 mph6.4 kmh 30.16 in1021.3 mb 0.00 in0.0 mm 0.00 in0.0 mm 0.00 in0.0 mm
09:57 AM 27.4°F-2.6°C 22.6°F-5.2°C 82% 2.0 mph S3.2 kmh S 4.0 mph6.4 kmh 30.16 in1021.3 mb 0.00 in0.0 mm 0.00 in0.0 mm 0.00 in0.0 mm
10:02 AM 28.0°F-2.2°C 23.2°F-4.9°C 82% 1.0 mph S1.6 kmh S 3.0 mph4.8 kmh 30.17 in1021.7 mb 0.00 in0.0 mm 0.00 in0.0 mm 0.00 in0.0 mm
10:07 AM 28.4°F-2.0°C 23.3°F-4.8°C 81% 2.0 mph S3.2 kmh S 3.0 mph4.8 kmh 30.17 in1021.7 mb 0.00 in0.0 mm 0.00 in0.0 mm 0.00 in0.0 mm
10:12 AM 28.7°F-1.8°C 23.3°F-4.8°C 80% Calm Calm 3.0 mph4.8 kmh 30.18 in1022.0 mb 0.00 in0.0 mm 0.00 in0.0 mm 0.00 in0.0 mm
10:17 AM 29.0°F-1.7°C 23.3°F-4.8°C 79% Calm Calm -- 30.18 in1022.0 mb 0.00 in0.0 mm 0.00 in0.0 mm 0.00 in0.0 mm
10:22 AM 29.3°F-1.5°C 23.6°F-4.7°C 79% 2.0 mph S3.2 kmh S 2.0 mph3.2 kmh 30.18 in1022.0 mb 0.00 in0.0 mm 0.00 in0.0 mm 0.00 in0.0 mm
10:27 AM 29.7°F-1.3°C 23.7°F-4.6°C 78% 2.0 mph S3.2 kmh S 4.0 mph6.4 kmh 30.18 in1022.0 mb 0.00 in0.0 mm 0.00 in0.0 mm 0.00 in0.0 mm
10:32 AM 30.1°F-1.1°C 23.7°F-4.6°C 77% 1.0 mph SSW1.6 kmh SSW 4.0 mph6.4 kmh 30.18 in1022.0 mb 0.00 in0.0 mm 0.00 in0.0 mm 0.00 in0.0 mm
10:37 AM 30.4°F-0.9°C 23.4°F-4.8°C 75% 2.0 mph SSW3.2 kmh SSW 4.0 mph6.4 kmh 30.19 in1022.4 mb 0.00 in0.0 mm 0.00 in0.0 mm 0.00 in0.0 mm
10:42 AM 30.6°F-0.8°C 23.2°F-4.9°C 74% Calm Calm 4.0 mph6.4 kmh 30.19 in1022.4 mb 0.00 in0.0 mm 0.00 in0.0 mm 0.00 in0.0 mm
10:47 AM 30.9°F-0.6°C 23.5°F-4.7°C 74% 2.0 mph SSW3.2 kmh SSW 5.0 mph8.0 kmh 30.19 in1022.4 mb 0.00 in0.0 mm 0.00 in0.0 mm 0.00 in0.0 mm
10:52 AM 31.3°F-0.4°C 23.6°F-4.7°C 73% 3.0 mph SW4.8 kmh SW 5.0 mph8.0 kmh 30.19 in1022.4 mb 0.00 in0.0 mm 0.00 in0.0 mm 0.00 in0.0 mm
10:57 AM 31.6°F-0.2°C 23.9°F-4.5°C 73% 1.0 mph SW1.6 kmh SW 5.0 mph8.0 kmh 30.20 in1022.7 mb 0.00 in0.0 mm 0.00 in0.0 mm 0.00 in0.0 mm
11:02 AM 31.9°F-0.1°C 23.8°F-4.6°C 72% 1.0 mph SW1.6 kmh SW 4.0 mph6.4 kmh 30.20 in1022.7 mb 0.00 in0.0 mm 0.00 in0.0 mm 0.00 in0.0 mm
11:07 AM 32.2°F0.1°C 24.1°F-4.4°C 72% 1.0 mph SW1.6 kmh SW 4.0 mph6.4 kmh 30.20 in1022.7 mb 0.00 in0.0 mm 0.00 in0.0 mm 0.00 in0.0 mm
11:12 AM 32.5°F0.3°C 24.1°F-4.4°C 71% Calm Calm -- 30.21 in1023.0 mb 0.00 in0.0 mm 0.00 in0.0 mm 0.00 in0.0 mm
11:17 AM 32.7°F0.4°C 23.9°F-4.5°C 70% Calm Calm -- 30.21 in1023.0 mb 0.00 in0.0 mm 0.00 in0.0 mm 0.00 in0.0 mm
11:22 AM 32.7°F0.4°C 23.9°F-4.5°C 70% Calm Calm -- 30.21 in1023.0 mb 0.00 in0.0 mm 0.00 in0.0 mm 0.00 in0.0 mm
11:27 AM 33.0°F0.6°C 23.8°F-4.6°C 69% Calm Calm -- 30.21 in1023.0 mb 0.00 in0.0 mm 0.00 in0.0 mm 0.00 in0.0 mm
11:32 AM 33.3°F0.7°C 24.1°F-4.4°C 69% Calm Calm -- 30.21 in1023.0 mb 0.00 in0.0 mm 0.00 in0.0 mm 0.00 in0.0 mm
11:37 AM 33.4°F0.8°C 23.9°F-4.5°C 68% Calm Calm -- 30.21 in1023.0 mb 0.00 in0.0 mm 0.00 in0.0 mm 0.00 in0.0 mm
11:42 AM 33.7°F0.9°C 23.8°F-4.6°C 67% Calm Calm -- 30.21 in1023.0 mb 0.00 in0.0 mm 0.00 in0.0 mm 0.00 in0.0 mm
11:47 AM 34.2°F1.2°C 24.6°F-4.1°C 68% Calm Calm -- 30.21 in1023.0 mb 0.00 in0.0 mm 0.00 in0.0 mm 0.00 in0.0 mm
11:52 AM 34.2°F1.2°C 23.9°F-4.5°C 66% Calm Calm -- 30.21 in1023.0 mb 0.00 in0.0 mm 0.00 in0.0 mm 0.00 in0.0 mm
11:57 AM 34.6°F1.4°C 24.6°F-4.1°C 67% Calm Calm -- 30.21 in1023.0 mb 0.00 in0.0 mm 0.00 in0.0 mm 0.00 in0.0 mm
12:02 PM 35.1°F1.7°C 24.4°F-4.2°C 65% Calm Calm -- 30.21 in1023.0 mb 0.00 in0.0 mm 0.00 in0.0 mm 0.00 in0.0 mm
12:07 PM 35.3°F1.8°C 25.3°F-3.7°C 67% Calm Calm -- 30.21 in1023.0 mb 0.00 in0.0 mm 0.00 in0.0 mm 0.00 in0.0 mm
12:12 PM 35.6°F2.0°C 25.2°F-3.8°C 66% Calm Calm -- 30.21 in1023.0 mb 0.00 in0.0 mm 0.00 in0.0 mm 0.00 in0.0 mm
12:17 PM 35.5°F1.9°C 24.0°F-4.4°C 63% Calm Calm -- 30.21 in1023.0 mb 0.00 in0.0 mm 0.00 in0.0 mm 0.00 in0.0 mm
12:22 PM 36.4°F2.4°C 25.6°F-3.6°C 65% Calm Calm -- 30.20 in1022.7 mb 0.00 in0.0 mm 0.00 in0.0 mm 0.00 in0.0 mm
12:27 PM 36.5°F2.5°C 24.9°F-3.9°C 63% Calm Calm -- 30.20 in1022.7 mb 0.00 in0.0 mm 0.00 in0.0 mm 0.00 in0.0 mm
12:32 PM 36.8°F2.7°C 24.8°F-4.0°C 62% Calm Calm -- 30.20 in1022.7 mb 0.00 in0.0 mm 0.00 in0.0 mm 0.00 in0.0 mm
12:37 PM 36.6°F2.6°C 24.2°F-4.3°C 61% Calm Calm -- 30.20 in1022.7 mb 0.00 in0.0 mm 0.00 in0.0 mm 0.00 in0.0 mm
12:42 PM 36.6°F2.6°C 23.8°F-4.6°C 60% Calm Calm -- 30.20 in1022.7 mb 0.00 in0.0 mm 0.00 in0.0 mm 0.00 in0.0 mm
12:47 PM 37.1°F2.8°C 24.7°F-4.1°C 61% Calm Calm -- 30.20 in1022.7 mb 0.00 in0.0 mm 0.00 in0.0 mm 0.00 in0.0 mm
12:52 PM 37.2°F2.9°C 24.8°F-4.0°C 61% Calm Calm -- 30.20 in1022.7 mb 0.00 in0.0 mm 0.00 in0.0 mm 0.00 in0.0 mm
12:57 PM 37.6°F3.1°C 25.2°F-3.8°C 61% Calm Calm -- 30.20 in1022.7 mb 0.00 in0.0 mm 0.00 in0.0 mm 0.00 in0.0 mm
01:02 PM 37.7°F3.2°C 24.8°F-4.0°C 60% Calm Calm -- 30.20 in1022.7 mb 0.00 in0.0 mm 0.00 in0.0 mm 0.00 in0.0 mm
01:07 PM 38.1°F3.4°C 24.8°F-4.0°C 59% Calm Calm 1.0 mph1.6 kmh 30.19 in1022.4 mb 0.00 in0.0 mm 0.00 in0.0 mm 0.00 in0.0 mm
01:12 PM 38.0°F3.3°C 24.7°F-4.1°C 59% 1.0 mph S1.6 kmh S 1.0 mph1.6 kmh 30.19 in1022.4 mb 0.00 in0.0 mm 0.00 in0.0 mm 0.00 in0.0 mm
01:17 PM 38.3°F3.5°C 25.0°F-3.9°C 59% 5.0 mph S8.0 kmh S 6.0 mph9.7 kmh 30.19 in1022.4 mb 0.00 in0.0 mm 0.00 in0.0 mm 0.00 in0.0 mm
01:22 PM 38.0°F3.3°C 24.3°F-4.3°C 58% Calm Calm 6.0 mph9.7 kmh 30.19 in1022.4 mb 0.00 in0.0 mm 0.00 in0.0 mm 0.00 in0.0 mm
01:27 PM 37.9°F3.3°C 24.2°F-4.3°C 58% Calm Calm -- 30.19 in1022.4 mb 0.00 in0.0 mm 0.00 in0.0 mm 0.00 in0.0 mm
01:32 PM 38.3°F3.5°C 24.1°F-4.4°C 57% Calm Calm -- 30.19 in1022.4 mb 0.00 in0.0 mm 0.00 in0.0 mm 0.00 in0.0 mm
01:37 PM 38.9°F3.8°C 25.1°F-3.8°C 58% Calm Calm -- 30.18 in1022.0 mb 0.00 in0.0 mm 0.00 in0.0 mm 0.00 in0.0 mm
01:42 PM 38.9°F3.8°C 24.7°F-4.1°C 57% Calm Calm 1.0 mph1.6 kmh 30.19 in1022.4 mb 0.00 in0.0 mm 0.00 in0.0 mm 0.00 in0.0 mm
01:47 PM 38.6°F3.7°C 24.4°F-4.2°C 57% 3.0 mph S4.8 kmh S 10.0 mph16.1 kmh 30.19 in1022.4 mb 0.00 in0.0 mm 0.00 in0.0 mm 0.00 in0.0 mm
01:52 PM 38.7°F3.7°C 24.5°F-4.2°C 57% Calm Calm 10.0 mph16.1 kmh 30.18 in1022.0 mb 0.00 in0.0 mm 0.00 in0.0 mm 0.00 in0.0 mm
01:57 PM 38.9°F3.8°C 24.7°F-4.1°C 57% 5.0 mph S8.0 kmh S 10.0 mph16.1 kmh 30.18 in1022.0 mb 0.00 in0.0 mm 0.00 in0.0 mm 0.00 in0.0 mm
02:02 PM 39.4°F4.1°C 24.7°F-4.1°C 56% 5.0 mph S8.0 kmh S 10.0 mph16.1 kmh 30.18 in1022.0 mb 0.00 in0.0 mm 0.00 in0.0 mm 0.00 in0.0 mm
02:07 PM 39.2°F4.0°C 24.5°F-4.2°C 56% 4.0 mph SSW6.4 kmh SSW 9.0 mph14.5 kmh 30.18 in1022.0 mb 0.00 in0.0 mm 0.00 in0.0 mm 0.00 in0.0 mm
02:12 PM 39.5°F4.2°C 24.8°F-4.0°C 56% 7.0 mph S11.3 kmh S 9.0 mph14.5 kmh 30.18 in1022.0 mb 0.00 in0.0 mm 0.00 in0.0 mm 0.00 in0.0 mm
02:17 PM 39.4°F4.1°C 24.7°F-4.1°C 56% 4.0 mph SSW6.4 kmh SSW 9.0 mph14.5 kmh 30.18 in1022.0 mb 0.00 in0.0 mm 0.00 in0.0 mm 0.00 in0.0 mm
02:22 PM 39.9°F4.4°C 25.6°F-3.6°C 57% Calm Calm 9.0 mph14.5 kmh 30.18 in1022.0 mb 0.00 in0.0 mm 0.00 in0.0 mm 0.00 in0.0 mm
02:27 PM 40.2°F4.6°C 25.0°F-3.9°C 55% Calm Calm 1.0 mph1.6 kmh 30.18 in1022.0 mb 0.00 in0.0 mm 0.00 in0.0 mm 0.00 in0.0 mm
02:32 PM 39.9°F4.4°C 24.7°F-4.1°C 55% 1.0 mph S1.6 kmh S 10.0 mph16.1 kmh 30.19 in1022.4 mb 0.00 in0.0 mm 0.00 in0.0 mm 0.00 in0.0 mm
02:37 PM 40.4°F4.7°C 25.6°F-3.6°C 56% 1.0 mph SSW1.6 kmh SSW 1.0 mph1.6 kmh 30.19 in1022.4 mb 0.00 in0.0 mm 0.00 in0.0 mm 0.00 in0.0 mm
02:42 PM 40.1°F4.5°C 24.9°F-3.9°C 55% 6.0 mph S9.7 kmh S 8.0 mph12.9 kmh 30.19 in1022.4 mb 0.00 in0.0 mm 0.00 in0.0 mm 0.00 in0.0 mm
02:47 PM 40.2°F4.6°C 25.0°F-3.9°C 55% 1.0 mph SSW1.6 kmh SSW 8.0 mph12.9 kmh 30.19 in1022.4 mb 0.00 in0.0 mm 0.00 in0.0 mm 0.00 in0.0 mm
02:52 PM 40.3°F4.6°C 25.1°F-3.8°C 55% 7.0 mph S11.3 kmh S 10.0 mph16.1 kmh 30.19 in1022.4 mb 0.00 in0.0 mm 0.00 in0.0 mm 0.00 in0.0 mm
02:57 PM 40.3°F4.6°C 25.6°F-3.6°C 56% Calm Calm 1.0 mph1.6 kmh 30.19 in1022.4 mb 0.00 in0.0 mm 0.00 in0.0 mm 0.00 in0.0 mm
03:02 PM 40.5°F4.7°C 25.3°F-3.7°C 55% 4.0 mph SW6.4 kmh SW 9.0 mph14.5 kmh 30.19 in1022.4 mb 0.00 in0.0 mm 0.00 in0.0 mm 0.00 in0.0 mm
03:07 PM 40.8°F4.9°C 25.6°F-3.6°C 55% 1.0 mph S1.6 kmh S 9.0 mph14.5 kmh 30.20 in1022.7 mb 0.00 in0.0 mm 0.00 in0.0 mm 0.00 in0.0 mm
03:12 PM 40.8°F4.9°C 25.1°F-3.8°C 54% 2.0 mph SSW3.2 kmh SSW 9.0 mph14.5 kmh 30.19 in1022.4 mb 0.00 in0.0 mm 0.00 in0.0 mm 0.00 in0.0 mm
03:17 PM 40.9°F4.9°C 25.2°F-3.8°C 54% 7.0 mph SSW11.3 kmh SSW 9.0 mph14.5 kmh 30.19 in1022.4 mb 0.00 in0.0 mm 0.00 in0.0 mm 0.00 in0.0 mm
03:22 PM 41.0°F5.0°C 24.8°F-4.0°C 53% 5.0 mph SSE8.0 kmh SSE 9.0 mph14.5 kmh 30.19 in1022.4 mb 0.00 in0.0 mm 0.00 in0.0 mm 0.00 in0.0 mm
03:27 PM 41.0°F5.0°C 24.8°F-4.0°C 53% 2.0 mph SW3.2 kmh SW 9.0 mph14.5 kmh 30.19 in1022.4 mb 0.00 in0.0 mm 0.00 in0.0 mm 0.00 in0.0 mm
03:32 PM 41.4°F5.2°C 25.2°F-3.8°C 53% 4.0 mph SW6.4 kmh SW 9.0 mph14.5 kmh 30.19 in1022.4 mb 0.00 in0.0 mm 0.00 in0.0 mm 0.00 in0.0 mm
03:37 PM 41.4°F5.2°C 25.2°F-3.8°C 53% 4.0 mph SW6.4 kmh SW 11.0 mph17.7 kmh 30.19 in1022.4 mb 0.00 in0.0 mm 0.00 in0.0 mm 0.00 in0.0 mm
03:42 PM 41.1°F5.1°C 24.9°F-3.9°C 53% 3.0 mph SSW4.8 kmh SSW 11.0 mph17.7 kmh 30.19 in1022.4 mb 0.00 in0.0 mm 0.00 in0.0 mm 0.00 in0.0 mm
03:47 PM 41.3°F5.2°C 25.1°F-3.8°C 53% 2.0 mph S3.2 kmh S 11.0 mph17.7 kmh 30.19 in1022.4 mb 0.00 in0.0 mm 0.00 in0.0 mm 0.00 in0.0 mm
03:52 PM 41.2°F5.1°C 24.1°F-4.4°C 51% 3.0 mph SSW4.8 kmh SSW 11.0 mph17.7 kmh 30.19 in1022.4 mb 0.00 in0.0 mm 0.00 in0.0 mm 0.00 in0.0 mm
03:57 PM 41.4°F5.2°C 24.7°F-4.1°C 52% 5.0 mph S8.0 kmh S 6.0 mph9.7 kmh 30.19 in1022.4 mb 0.00 in0.0 mm 0.00 in0.0 mm 0.00 in0.0 mm
04:02 PM 41.2°F5.1°C 24.5°F-4.2°C 52% 5.0 mph SW8.0 kmh SW 7.0 mph11.3 kmh 30.19 in1022.4 mb 0.00 in0.0 mm 0.00 in0.0 mm 0.00 in0.0 mm
04:07 PM 41.3°F5.2°C 24.6°F-4.1°C 52% 7.0 mph SW11.3 kmh SW 8.0 mph12.9 kmh 30.19 in1022.4 mb 0.00 in0.0 mm 0.00 in0.0 mm 0.00 in0.0 mm
04:12 PM 41.5°F5.3°C 24.8°F-4.0°C 52% 3.0 mph SE4.8 kmh SE 8.0 mph12.9 kmh 30.19 in1022.4 mb 0.00 in0.0 mm 0.00 in0.0 mm 0.00 in0.0 mm
04:17 PM 41.2°F5.1°C 24.5°F-4.2°C 52% 6.0 mph S9.7 kmh S 8.0 mph12.9 kmh 30.19 in1022.4 mb 0.00 in0.0 mm 0.00 in0.0 mm 0.00 in0.0 mm
04:22 PM 41.0°F5.0°C 24.4°F-4.2°C 52% 4.0 mph SE6.4 kmh SE 8.0 mph12.9 kmh 30.19 in1022.4 mb 0.00 in0.0 mm 0.00 in0.0 mm 0.00 in0.0 mm
04:27 PM 41.0°F5.0°C 24.8°F-4.0°C 53% 2.0 mph S3.2 kmh S 8.0 mph12.9 kmh 30.19 in1022.4 mb 0.00 in0.0 mm 0.00 in0.0 mm 0.00 in0.0 mm
04:32 PM 41.1°F5.1°C 24.4°F-4.2°C 52% 5.0 mph SW8.0 kmh SW 8.0 mph12.9 kmh 30.19 in1022.4 mb 0.00 in0.0 mm 0.00 in0.0 mm 0.00 in0.0 mm
04:37 PM 41.1°F5.1°C 24.9°F-3.9°C 53% 3.0 mph SSE4.8 kmh SSE 6.0 mph9.7 kmh 30.20 in1022.7 mb 0.00 in0.0 mm 0.00 in0.0 mm 0.00 in0.0 mm
04:42 PM 41.1°F5.1°C 24.4°F-4.2°C 52% 4.0 mph SSE6.4 kmh SSE 6.0 mph9.7 kmh 30.20 in1022.7 mb 0.00 in0.0 mm 0.00 in0.0 mm 0.00 in0.0 mm
04:47 PM 41.1°F5.1°C 24.4°F-4.2°C 52% 2.0 mph SE3.2 kmh SE 6.0 mph9.7 kmh 30.20 in1022.7 mb 0.00 in0.0 mm 0.00 in0.0 mm 0.00 in0.0 mm
04:52 PM 41.0°F5.0°C 24.4°F-4.2°C 52% 4.0 mph SE6.4 kmh SE 6.0 mph9.7 kmh 30.20 in1022.7 mb 0.00 in0.0 mm 0.00 in0.0 mm 0.00 in0.0 mm
04:57 PM 40.9°F4.9°C 24.3°F-4.3°C 52% 2.0 mph S3.2 kmh S 6.0 mph9.7 kmh 30.21 in1023.0 mb 0.00 in0.0 mm 0.00 in0.0 mm 0.00 in0.0 mm
05:02 PM 40.7°F4.8°C 24.1°F-4.4°C 52% 5.0 mph SE8.0 kmh SE 6.0 mph9.7 kmh 30.21 in1023.0 mb 0.00 in0.0 mm 0.00 in0.0 mm 0.00 in0.0 mm
05:07 PM 40.7°F4.8°C 24.6°F-4.1°C 53% 5.0 mph S8.0 kmh S 7.0 mph11.3 kmh 30.21 in1023.0 mb 0.00 in0.0 mm 0.00 in0.0 mm 0.00 in0.0 mm
05:12 PM 40.8°F4.9°C 24.6°F-4.1°C 53% 1.0 mph S1.6 kmh S 7.0 mph11.3 kmh 30.21 in1023.0 mb 0.00 in0.0 mm 0.00 in0.0 mm 0.00 in0.0 mm
05:17 PM 40.7°F4.8°C 24.6°F-4.1°C 53% Calm Calm 7.0 mph11.3 kmh 30.20 in1022.7 mb 0.00 in0.0 mm 0.00 in0.0 mm 0.00 in0.0 mm
05:22 PM 40.7°F4.8°C 24.6°F-4.1°C 53% 3.0 mph SSE4.8 kmh SSE 7.0 mph11.3 kmh 30.21 in1023.0 mb 0.00 in0.0 mm 0.00 in0.0 mm 0.00 in0.0 mm
05:27 PM 40.6°F4.8°C 24.5°F-4.2°C 53% Calm Calm 4.0 mph6.4 kmh 30.21 in1023.0 mb 0.00 in0.0 mm 0.00 in0.0 mm 0.00 in0.0 mm
05:32 PM 40.5°F4.7°C 24.4°F-4.2°C 53% 1.0 mph SE1.6 kmh SE 2.0 mph3.2 kmh 30.21 in1023.0 mb 0.00 in0.0 mm 0.00 in0.0 mm 0.00 in0.0 mm
05:37 PM 40.4°F4.7°C 24.7°F-4.1°C 54% 1.0 mph SE1.6 kmh SE 2.0 mph3.2 kmh 30.21 in1023.0 mb 0.00 in0.0 mm 0.00 in0.0 mm 0.00 in0.0 mm
05:42 PM 40.2°F4.6°C 24.6°F-4.1°C 54% Calm Calm 2.0 mph3.2 kmh 30.20 in1022.7 mb 0.00 in0.0 mm 0.00 in0.0 mm 0.00 in0.0 mm
05:47 PM 40.0°F4.4°C 24.4°F-4.2°C 54% 1.0 mph E1.6 kmh E 2.0 mph3.2 kmh 30.20 in1022.7 mb 0.00 in0.0 mm 0.00 in0.0 mm 0.00 in0.0 mm
05:52 PM 39.7°F4.3°C 24.5°F-4.2°C 55% Calm Calm 1.0 mph1.6 kmh 30.21 in1023.0 mb 0.00 in0.0 mm 0.00 in0.0 mm 0.00 in0.0 mm
05:57 PM 39.5°F4.2°C 24.4°F-4.2°C 55% 1.0 mph E1.6 kmh E 1.0 mph1.6 kmh 30.20 in1022.7 mb 0.00 in0.0 mm 0.00 in0.0 mm 0.00 in0.0 mm
06:02 PM 39.1°F3.9°C 24.4°F-4.2°C 56% 1.0 mph NE1.6 kmh NE 3.0 mph4.8 kmh 30.21 in1023.0 mb 0.00 in0.0 mm 0.00 in0.0 mm 0.00 in0.0 mm
06:07 PM 38.6°F3.7°C 24.8°F-4.0°C 58% 3.0 mph ENE4.8 kmh ENE 5.0 mph8.0 kmh 30.21 in1023.0 mb 0.00 in0.0 mm 0.00 in0.0 mm 0.00 in0.0 mm
06:12 PM 37.8°F3.2°C 24.5°F-4.2°C 59% Calm Calm 5.0 mph8.0 kmh 30.22 in1023.4 mb 0.00 in0.0 mm 0.00 in0.0 mm 0.00 in0.0 mm
06:17 PM 37.1°F2.8°C 24.3°F-4.3°C 60% 1.0 mph ENE1.6 kmh ENE 5.0 mph8.0 kmh 30.22 in1023.4 mb 0.00 in0.0 mm 0.00 in0.0 mm 0.00 in0.0 mm
06:22 PM 36.2°F2.3°C 23.8°F-4.6°C 61% Calm Calm 7.0 mph11.3 kmh 30.23 in1023.7 mb 0.00 in0.0 mm 0.00 in0.0 mm 0.00 in0.0 mm
06:27 PM 35.5°F1.9°C 24.0°F-4.4°C 63% Calm Calm 7.0 mph11.3 kmh 30.23 in1023.7 mb 0.00 in0.0 mm 0.00 in0.0 mm 0.00 in0.0 mm
06:32 PM 34.9°F1.6°C 23.4°F-4.8°C 63% Calm Calm 7.0 mph11.3 kmh 30.23 in1023.7 mb 0.00 in0.0 mm 0.00 in0.0 mm 0.00 in0.0 mm
06:37 PM 34.6°F1.4°C 23.5°F-4.7°C 64% 2.0 mph ENE3.2 kmh ENE 2.0 mph3.2 kmh 30.23 in1023.7 mb 0.00 in0.0 mm 0.00 in0.0 mm 0.00 in0.0 mm
06:42 PM 34.1°F1.2°C 23.4°F-4.8°C 65% Calm Calm -- 30.23 in1023.7 mb 0.00 in0.0 mm 0.00 in0.0 mm 0.00 in0.0 mm
06:47 PM 33.6°F0.9°C 22.9°F-5.1°C 65% 2.0 mph E3.2 kmh E 5.0 mph8.0 kmh 30.23 in1023.7 mb 0.00 in0.0 mm 0.00 in0.0 mm 0.00 in0.0 mm
06:52 PM 33.2°F0.7°C 23.3°F-4.8°C 67% 5.0 mph E8.0 kmh E 6.0 mph9.7 kmh 30.24 in1024.0 mb 0.00 in0.0 mm 0.00 in0.0 mm 0.00 in0.0 mm
06:57 PM 32.7°F0.4°C 23.2°F-4.9°C 68% 5.0 mph E8.0 kmh E 6.0 mph9.7 kmh 30.24 in1024.0 mb 0.00 in0.0 mm 0.00 in0.0 mm 0.00 in0.0 mm
07:02 PM 32.3°F0.2°C 23.2°F-4.9°C 69% 4.0 mph E6.4 kmh E 6.0 mph9.7 kmh 30.24 in1024.0 mb 0.00 in0.0 mm 0.00 in0.0 mm 0.00 in0.0 mm
07:07 PM 32.0°F0.0°C 23.2°F-4.9°C 70% 4.0 mph E6.4 kmh E 6.0 mph9.7 kmh 30.25 in1024.4 mb 0.00 in0.0 mm 0.00 in0.0 mm 0.00 in0.0 mm
07:12 PM 31.8°F-0.1°C 23.4°F-4.8°C 71% 4.0 mph ENE6.4 kmh ENE 5.0 mph8.0 kmh 30.25 in1024.4 mb 0.00 in0.0 mm 0.00 in0.0 mm 0.00 in0.0 mm
07:17 PM 31.7°F-0.2°C 23.6°F-4.7°C 72% 2.0 mph ENE3.2 kmh ENE 5.0 mph8.0 kmh 30.25 in1024.4 mb 0.00 in0.0 mm 0.00 in0.0 mm 0.00 in0.0 mm
07:22 PM 31.5°F-0.3°C 23.4°F-4.8°C 72% 4.0 mph ENE6.4 kmh ENE 5.0 mph8.0 kmh 30.25 in1024.4 mb 0.00 in0.0 mm 0.00 in0.0 mm 0.00 in0.0 mm
07:27 PM 31.3°F-0.4°C 23.6°F-4.7°C 73% 3.0 mph ENE4.8 kmh ENE 5.0 mph8.0 kmh 30.25 in1024.4 mb 0.00 in0.0 mm 0.00 in0.0 mm 0.00 in0.0 mm
07:32 PM 31.2°F-0.4°C 23.8°F-4.6°C 74% 4.0 mph ENE6.4 kmh ENE 5.0 mph8.0 kmh 30.25 in1024.4 mb 0.00 in0.0 mm 0.00 in0.0 mm 0.00 in0.0 mm
07:37 PM 31.0°F-0.6°C 23.6°F-4.7°C 74% 1.0 mph E1.6 kmh E 5.0 mph8.0 kmh 30.25 in1024.4 mb 0.00 in0.0 mm 0.00 in0.0 mm 0.00 in0.0 mm
07:42 PM 31.0°F-0.6°C 24.0°F-4.4°C 75% Calm Calm 5.0 mph8.0 kmh 30.25 in1024.4 mb 0.00 in0.0 mm 0.00 in0.0 mm 0.00 in0.0 mm
07:47 PM 31.0°F-0.6°C 24.3°F-4.3°C 76% 1.0 mph ENE1.6 kmh ENE 5.0 mph8.0 kmh 30.25 in1024.4 mb 0.00 in0.0 mm 0.00 in0.0 mm 0.00 in0.0 mm
07:52 PM 31.3°F-0.4°C 25.2°F-3.8°C 78% 1.0 mph ENE1.6 kmh ENE 5.0 mph8.0 kmh 30.25 in1024.4 mb 0.00 in0.0 mm 0.00 in0.0 mm 0.00 in0.0 mm
07:57 PM 31.4°F-0.3°C 25.3°F-3.7°C 78% 1.0 mph ENE1.6 kmh ENE 5.0 mph8.0 kmh 30.25 in1024.4 mb 0.00 in0.0 mm 0.00 in0.0 mm 0.00 in0.0 mm
08:02 PM 31.4°F-0.3°C 25.3°F-3.7°C 78% 1.0 mph ENE1.6 kmh ENE 5.0 mph8.0 kmh 30.26 in1024.7 mb 0.00 in0.0 mm 0.00 in0.0 mm 0.00 in0.0 mm
08:07 PM 31.3°F-0.4°C 25.2°F-3.8°C 78% 1.0 mph E1.6 kmh E 5.0 mph8.0 kmh 30.26 in1024.7 mb 0.00 in0.0 mm 0.00 in0.0 mm 0.00 in0.0 mm
08:12 PM 31.0°F-0.6°C 24.9°F-3.9°C 78% 1.0 mph E1.6 kmh E 5.0 mph8.0 kmh 30.25 in1024.4 mb 0.00 in0.0 mm 0.00 in0.0 mm 0.00 in0.0 mm
08:17 PM 30.9°F-0.6°C 24.8°F-4.0°C 78% 1.0 mph ENE1.6 kmh ENE 5.0 mph8.0 kmh 30.26 in1024.7 mb 0.00 in0.0 mm 0.00 in0.0 mm 0.00 in0.0 mm
08:22 PM 30.8°F-0.7°C 24.7°F-4.1°C 78% 2.0 mph ENE3.2 kmh ENE 5.0 mph8.0 kmh 30.26 in1024.7 mb 0.00 in0.0 mm 0.00 in0.0 mm 0.00 in0.0 mm
08:27 PM 30.8°F-0.7°C 24.7°F-4.1°C 78% 5.0 mph E8.0 kmh E 7.0 mph11.3 kmh 30.26 in1024.7 mb 0.00 in0.0 mm 0.00 in0.0 mm 0.00 in0.0 mm
08:32 PM 30.8°F-0.7°C 25.0°F-3.9°C 79% 5.0 mph E8.0 kmh E 8.0 mph12.9 kmh 30.25 in1024.4 mb 0.00 in0.0 mm 0.00 in0.0 mm 0.00 in0.0 mm
08:37 PM 30.8°F-0.7°C 25.0°F-3.9°C 79% 6.0 mph E9.7 kmh E 8.0 mph12.9 kmh 30.25 in1024.4 mb 0.00 in0.0 mm 0.00 in0.0 mm 0.00 in0.0 mm
08:42 PM 30.8°F-0.7°C 25.0°F-3.9°C 79% 3.0 mph E4.8 kmh E 8.0 mph12.9 kmh 30.26 in1024.7 mb 0.00 in0.0 mm 0.00 in0.0 mm 0.00 in0.0 mm
09:22 PM 30.6°F-0.8°C 25.5°F-3.6°C 81% 2.0 mph E3.2 kmh E 6.0 mph9.7 kmh 30.26 in1024.7 mb 0.00 in0.0 mm 0.00 in0.0 mm 0.00 in0.0 mm
09:27 PM 30.6°F-0.8°C 25.5°F-3.6°C 81% 1.0 mph E1.6 kmh E 6.0 mph9.7 kmh 30.26 in1024.7 mb 0.00 in0.0 mm 0.00 in0.0 mm 0.00 in0.0 mm
09:32 PM 30.6°F-0.8°C 25.8°F-3.4°C 82% 3.0 mph E4.8 kmh E 5.0 mph8.0 kmh 30.25 in1024.4 mb 0.00 in0.0 mm 0.00 in0.0 mm 0.00 in0.0 mm
09:37 PM 30.6°F-0.8°C 25.8°F-3.4°C 82% 1.0 mph E1.6 kmh E 5.0 mph8.0 kmh 30.25 in1024.4 mb 0.00 in0.0 mm 0.00 in0.0 mm 0.00 in0.0 mm
09:42 PM 30.6°F-0.8°C 25.8°F-3.4°C 82% 2.0 mph E3.2 kmh E 5.0 mph8.0 kmh 30.25 in1024.4 mb 0.00 in0.0 mm 0.00 in0.0 mm 0.00 in0.0 mm
09:47 PM 30.5°F-0.8°C 25.7°F-3.5°C 82% 2.0 mph E3.2 kmh E 5.0 mph8.0 kmh 30.25 in1024.4 mb 0.00 in0.0 mm 0.00 in0.0 mm 0.00 in0.0 mm
09:52 PM 30.5°F-0.8°C 25.7°F-3.5°C 82% 2.0 mph E3.2 kmh E 5.0 mph8.0 kmh 30.25 in1024.4 mb 0.00 in0.0 mm 0.00 in0.0 mm 0.00 in0.0 mm
09:57 PM 30.5°F-0.8°C 26.0°F-3.3°C 83% 2.0 mph E3.2 kmh E 5.0 mph8.0 kmh 30.25 in1024.4 mb 0.00 in0.0 mm 0.00 in0.0 mm 0.00 in0.0 mm
10:02 PM 30.6°F-0.8°C 26.1°F-3.3°C 83% 2.0 mph E3.2 kmh E 5.0 mph8.0 kmh 30.25 in1024.4 mb 0.00 in0.0 mm 0.00 in0.0 mm 0.00 in0.0 mm
10:07 PM 30.8°F-0.7°C 26.3°F-3.2°C 83% 3.0 mph E4.8 kmh E 5.0 mph8.0 kmh 30.25 in1024.4 mb 0.00 in0.0 mm 0.00 in0.0 mm 0.00 in0.0 mm
10:12 PM 30.8°F-0.7°C 26.3°F-3.2°C 83% 1.0 mph E1.6 kmh E 5.0 mph8.0 kmh 30.25 in1024.4 mb 0.00 in0.0 mm 0.00 in0.0 mm 0.00 in0.0 mm
10:17 PM 30.9°F-0.6°C 26.4°F-3.1°C 83% 2.0 mph E3.2 kmh E 5.0 mph8.0 kmh 30.25 in1024.4 mb 0.00 in0.0 mm 0.00 in0.0 mm 0.00 in0.0 mm
10:22 PM 30.9°F-0.6°C 26.4°F-3.1°C 83% 2.0 mph E3.2 kmh E 5.0 mph8.0 kmh 30.25 in1024.4 mb 0.00 in0.0 mm 0.00 in0.0 mm 0.00 in0.0 mm
10:27 PM 31.0°F-0.6°C 26.5°F-3.1°C 83% 2.0 mph E3.2 kmh E 5.0 mph8.0 kmh 30.24 in1024.0 mb 0.00 in0.0 mm 0.00 in0.0 mm 0.00 in0.0 mm
10:32 PM 31.0°F-0.6°C 26.5°F-3.1°C 83% 5.0 mph E8.0 kmh E 6.0 mph9.7 kmh 30.24 in1024.0 mb 0.00 in0.0 mm 0.00 in0.0 mm 0.00 in0.0 mm
10:37 PM 31.0°F-0.6°C 26.5°F-3.1°C 83% 5.0 mph E8.0 kmh E 6.0 mph9.7 kmh 30.23 in1023.7 mb 0.00 in0.0 mm 0.00 in0.0 mm 0.00 in0.0 mm
10:42 PM 31.0°F-0.6°C 26.2°F-3.2°C 82% 5.0 mph E8.0 kmh E 6.0 mph9.7 kmh 30.23 in1023.7 mb 0.00 in0.0 mm 0.00 in0.0 mm 0.00 in0.0 mm
10:47 PM 31.0°F-0.6°C 26.2°F-3.2°C 82% 2.0 mph E3.2 kmh E 6.0 mph9.7 kmh 30.23 in1023.7 mb 0.00 in0.0 mm 0.00 in0.0 mm 0.00 in0.0 mm
10:52 PM 31.1°F-0.5°C 26.2°F-3.2°C 82% 5.0 mph E8.0 kmh E 6.0 mph9.7 kmh 30.23 in1023.7 mb 0.00 in0.0 mm 0.00 in0.0 mm 0.00 in0.0 mm
10:57 PM 31.1°F-0.5°C 26.2°F-3.2°C 82% 5.0 mph E8.0 kmh E 6.0 mph9.7 kmh 30.23 in1023.7 mb 0.00 in0.0 mm 0.00 in0.0 mm 0.00 in0.0 mm
11:02 PM 31.2°F-0.4°C 26.0°F-3.3°C 81% 4.0 mph E6.4 kmh E 7.0 mph11.3 kmh 30.23 in1023.7 mb 0.00 in0.0 mm 0.00 in0.0 mm 0.00 in0.0 mm
11:07 PM 31.3°F-0.4°C 25.8°F-3.4°C 80% 3.0 mph E4.8 kmh E 7.0 mph11.3 kmh 30.23 in1023.7 mb 0.00 in0.0 mm 0.00 in0.0 mm 0.00 in0.0 mm
11:12 PM 31.3°F-0.4°C 25.8°F-3.4°C 80% 4.0 mph E6.4 kmh E 7.0 mph11.3 kmh 30.22 in1023.4 mb 0.00 in0.0 mm 0.00 in0.0 mm 0.00 in0.0 mm
11:17 PM 31.3°F-0.4°C 25.5°F-3.6°C 79% 4.0 mph E6.4 kmh E 7.0 mph11.3 kmh 30.22 in1023.4 mb 0.00 in0.0 mm 0.00 in0.0 mm 0.00 in0.0 mm
11:22 PM 31.3°F-0.4°C 25.2°F-3.8°C 78% 1.0 mph E1.6 kmh E 7.0 mph11.3 kmh 30.22 in1023.4 mb 0.00 in0.0 mm 0.00 in0.0 mm 0.00 in0.0 mm
11:27 PM 31.3°F-0.4°C 25.2°F-3.8°C 78% 3.0 mph E4.8 kmh E 7.0 mph11.3 kmh 30.23 in1023.7 mb 0.00 in0.0 mm 0.00 in0.0 mm 0.00 in0.0 mm
11:32 PM 31.3°F-0.4°C 24.9°F-3.9°C 77% 5.0 mph E8.0 kmh E 7.0 mph11.3 kmh 30.23 in1023.7 mb 0.00 in0.0 mm 0.00 in0.0 mm 0.00 in0.0 mm
11:37 PM 31.3°F-0.4°C 24.9°F-3.9°C 77% 5.0 mph E8.0 kmh E 6.0 mph9.7 kmh 30.23 in1023.7 mb 0.00 in0.0 mm 0.00 in0.0 mm 0.00 in0.0 mm
11:42 PM 31.4°F-0.3°C 24.7°F-4.1°C 76% 1.0 mph E1.6 kmh E 6.0 mph9.7 kmh 30.23 in1023.7 mb 0.00 in0.0 mm 0.00 in0.0 mm 0.00 in0.0 mm
11:47 PM 31.4°F-0.3°C 24.3°F-4.3°C 75% 1.0 mph E1.6 kmh E 5.0 mph8.0 kmh 30.23 in1023.7 mb 0.00 in0.0 mm 0.00 in0.0 mm 0.00 in0.0 mm
11:52 PM 31.4°F-0.3°C 24.3°F-4.3°C 75% 1.0 mph E1.6 kmh E 5.0 mph8.0 kmh 30.24 in1024.0 mb 0.00 in0.0 mm 0.00 in0.0 mm 0.00 in0.0 mm